Time;durP1;ratioP1;P1;durP2;ratioP2;P2;SDS_P1;SDS_P2;PMS_P1;PMS_P2;Temp;Humidity;BMP_temperature;BMP_pressure;BME280_temperature;BME280_humidity;BME280_pressure;Samples;Min_cycle;Max_cycle;Signal;HPM_P1;HPM_P2
2022/11/04 00:01:32;;;;;;;;;0.50;0.00;;;;;11.05;99.16;98900.50;5039353;28;45453;-91
2022/11/04 00:03:57;;;;;;;;;0.00;0.00;;;;;11.03;100.00;98902.38;5039552;28;45240;-91
2022/11/04 00:06:23;;;;;;;;;0.00;0.00;;;;;11.02;100.00;98912.06;5040028;28;45432;-91
2022/11/04 00:08:50;;;;;;;;;1.00;0.00;;;;;11.03;100.00;98911.13;5040292;28;45195;-90
2022/11/04 00:14:00;;;;;;;;;0.00;0.00;;;;;11.06;100.00;98925.97;5045264;28;45378;-91
2022/11/04 00:19:10;;;;;;;;;2.00;0.00;;;;;11.07;100.00;98923.22;5053698;28;45156;-92
2022/11/04 00:28:41;;;;;;;;;0.20;0.00;;;;;11.08;99.87;98906.47;5038565;28;45376;-90
2022/11/04 00:30:01;;;;;;;;;0.00;0.00;;;;;11.07;100.00;98922.38;5040941;28;45232;-91
2022/11/04 00:35:11;;;;;;;;;0.00;0.00;;;;;11.06;100.00;98923.34;5024469;28;45322;-91
2022/11/04 00:37:38;;;;;;;;;0.00;0.00;;;;;11.05;100.00;98911.91;5031161;28;45322;-91
2022/11/04 00:40:05;;;;;;;;;1.25;0.00;;;;;11.01;99.85;98910.34;5029474;28;45265;-90
2022/11/04 00:42:31;;;;;;;;;0.00;0.00;;;;;10.95;100.00;98904.47;5020514;28;45444;-90
2022/11/04 00:44:56;;;;;;;;;0.00;0.00;;;;;10.91;100.00;98898.47;5032869;28;45421;-90
2022/11/04 00:47:22;;;;;;;;;1.00;0.00;;;;;10.90;100.00;98890.63;5041321;28;45255;-90
2022/11/04 00:49:47;;;;;;;;;0.75;0.00;;;;;10.87;100.00;98889.00;5049281;28;45455;-90
2022/11/04 00:52:16;;;;;;;;;0.00;0.00;;;;;10.87;100.00;98889.00;5045095;28;46483;-90
2022/11/04 00:54:41;;;;;;;;;1.20;0.20;;;;;10.85;100.00;98893.50;5025825;28;45403;-90
2022/11/04 00:57:11;;;;;;;;;0.00;0.00;;;;;10.85;100.00;98885.59;5032673;28;45195;-90
2022/11/04 00:59:37;;;;;;;;;0.00;0.00;;;;;10.84;100.00;98897.06;5028243;28;45459;-90
2022/11/04 01:02:03;;;;;;;;;0.75;0.75;;;;;10.79;100.00;98896.41;5038421;28;45516;-90
2022/11/04 01:04:28;;;;;;;;;0.00;0.00;;;;;10.76;99.99;98899.16;5032709;28;45394;-89
2022/11/04 01:06:54;;;;;;;;;0.00;0.00;;;;;10.73;100.00;98884.34;5054813;28;45373;-91
2022/11/04 01:09:19;;;;;;;;;0.00;0.00;;;;;10.71;100.00;98877.44;5041802;28;45303;-89
2022/11/04 01:11:45;;;;;;;;;0.25;0.25;;;;;10.68;99.56;98874.94;5031023;28;45358;-90
2022/11/04 01:14:10;;;;;;;;;0.00;0.00;;;;;10.66;100.00;98872.38;5049142;28;45397;-88
2022/11/04 01:16:37;;;;;;;;;0.25;0.00;;;;;10.63;99.57;98866.38;5033156;28;45507;-87
2022/11/04 01:19:03;;;;;;;;;0.00;0.00;;;;;10.61;99.41;98873.47;5052538;28;45468;-89
2022/11/04 01:21:29;;;;;;;;;0.00;0.00;;;;;10.58;100.00;98870.97;5042328;28;46727;-88
2022/11/04 01:23:54;;;;;;;;;0.00;0.00;;;;;10.56;100.00;98872.84;5038188;28;45632;-87
2022/11/04 01:26:23;;;;;;;;;1.00;0.00;;;;;10.51;100.00;98873.03;5026906;28;45273;-88
2022/11/04 01:28:49;;;;;;;;;0.00;0.00;;;;;10.45;99.64;98882.06;5025582;28;45339;-88
2022/11/04 01:31:21;;;;;;;;;0.00;0.00;;;;;10.37;99.54;98880.69;5023104;28;46286;-88
2022/11/04 01:33:49;;;;;;;;;0.00;0.00;;;;;10.30;99.57;98881.88;5036240;28;45385;-88
2022/11/04 01:36:14;;;;;;;;;0.00;0.00;;;;;10.21;96.98;98874.38;5045204;28;45316;-89
2022/11/04 01:38:40;;;;;;;;;0.00;0.00;;;;;10.13;96.86;98866.75;5035119;28;45376;-89
2022/11/04 01:41:07;;;;;;;;;0.00;0.00;;;;;10.12;97.49;98862.41;5045495;28;46377;-89
2022/11/04 01:43:44;;;;;;;;;0.00;0.00;;;;;10.11;98.59;98850.16;5032648;28;45518;-88
2022/11/04 01:46:20;;;;;;;;;0.00;0.00;;;;;10.08;99.25;98856.41;5032680;28;45544;-88
2022/11/04 01:48:46;;;;;;;;;0.00;0.00;;;;;10.06;98.85;98860.88;5036697;28;45526;-87
2022/11/04 01:51:12;;;;;;;;;0.00;0.00;;;;;10.02;98.36;98856.69;5029153;28;47984;-88
2022/11/04 01:53:40;;;;;;;;;0.00;0.00;;;;;9.99;99.06;98855.94;5038077;28;45420;-88
2022/11/04 01:56:10;;;;;;;;;0.00;0.00;;;;;9.95;99.63;98847.31;5040333;28;45487;-88
2022/11/04 01:58:40;;;;;;;;;0.00;0.00;;;;;9.95;99.74;98856.97;5031461;28;45239;-89
2022/11/04 02:01:07;;;;;;;;;1.00;1.00;;;;;9.93;100.00;98851.78;5031087;28;47874;-88
2022/11/04 02:03:39;;;;;;;;;0.00;0.00;;;;;9.93;100.00;98850.91;5038436;28;45725;-88
2022/11/04 02:06:06;;;;;;;;;3.00;2.00;;;;;9.90;100.00;98848.41;5031383;28;45325;-88
2022/11/04 02:08:33;;;;;;;;;1.25;1.25;;;;;9.88;100.00;98847.66;5044009;28;45339;-87
2022/11/04 02:11:00;;;;;;;;;1.00;1.00;;;;;9.82;100.00;98835.59;5047050;28;45673;-88
2022/11/04 02:13:29;;;;;;;;;0.00;0.00;;;;;9.76;100.00;98831.41;5032533;28;45414;-88
2022/11/04 02:15:54;;;;;;;;;1.00;0.00;;;;;9.73;100.00;98821.00;5022847;28;45501;-87
2022/11/04 02:18:41;;;;;;;;;1.00;0.00;;;;;9.70;100.00;98815.91;5031490;28;45647;-87
2022/11/04 02:21:15;;;;;;;;;0.00;0.00;;;;;9.68;100.00;98808.97;5025476;28;46368;-88
2022/11/04 02:24:03;;;;;;;;;1.00;0.00;;;;;9.63;100.00;98803.88;5042588;28;45448;-88
2022/11/04 02:26:50;;;;;;;;;0.00;0.00;;;;;9.62;100.00;98810.06;5034869;28;45377;-87
2022/11/04 02:29:25;;;;;;;;;0.00;0.00;;;;;9.61;100.00;98821.53;5047377;28;45268;-87
2022/11/04 02:31:55;;;;;;;;;2.00;1.00;;;;;9.61;100.00;98821.53;5029188;28;45310;-87
2022/11/04 02:34:31;;;;;;;;;3.00;2.00;;;;;9.60;100.00;98816.31;5034800;28;45341;-87
2022/11/04 02:37:18;;;;;;;;;3.00;2.00;;;;;9.60;100.00;98809.28;5038679;28;45898;-87
2022/11/04 02:40:11;;;;;;;;;2.00;2.00;;;;;9.59;100.00;98807.56;5021399;28;45496;-87
2022/11/04 02:42:47;;;;;;;;;1.75;1.75;;;;;9.57;100.00;98814.66;5036856;28;45494;-88
2022/11/04 02:45:23;;;;;;;;;1.20;1.00;;;;;9.55;100.00;98813.88;5036120;28;45402;-87
2022/11/04 02:47:55;;;;;;;;;1.00;1.00;;;;;9.52;100.00;98806.13;5035823;28;45378;-87
2022/11/04 02:50:30;;;;;;;;;1.00;1.00;;;;;9.50;100.00;98802.69;5044414;28;45373;-87
2022/11/04 02:53:06;;;;;;;;;0.00;0.00;;;;;9.42;100.00;98800.34;5051360;28;45605;-87
2022/11/04 02:55:41;;;;;;;;;1.60;0.00;;;;;9.38;100.00;98784.78;5040552;28;45394;-87
2022/11/04 02:58:18;;;;;;;;;1.50;0.00;;;;;9.35;100.00;98780.50;5030932;28;45396;-87
2022/11/04 03:00:46;;;;;;;;;0.00;0.00;;;;;9.35;100.00;98771.75;5036541;28;45469;-87
2022/11/04 03:03:18;;;;;;;;;1.00;1.00;;;;;9.35;100.00;98771.75;5038458;28;45590;-87
2022/11/04 03:05:48;;;;;;;;;0.80;0.80;;;;;9.32;100.00;98770.09;5048762;28;45342;-87
2022/11/04 03:08:26;;;;;;;;;0.50;0.50;;;;;9.32;100.00;98780.63;5036112;28;45517;-87
2022/11/04 03:11:01;;;;;;;;;1.00;1.00;;;;;9.29;100.00;98780.72;5048794;28;45250;-88
2022/11/04 03:13:43;;;;;;;;;2.00;1.00;;;;;9.27;100.00;98774.69;5048944;28;46629;-87
2022/11/04 03:16:26;;;;;;;;;2.50;1.00;;;;;9.28;100.00;98778.16;5045271;28;45739;-87
2022/11/04 03:19:23;;;;;;;;;2.25;1.00;;;;;9.30;100.00;98778.97;5037675;28;45408;-88
2022/11/04 03:21:55;;;;;;;;;0.75;0.75;;;;;9.32;100.00;98758.72;5038320;28;45276;-88
2022/11/04 03:24:20;;;;;;;;;1.25;0.75;;;;;9.35;100.00;98766.50;5027370;28;45755;-88
2022/11/04 03:26:54;;;;;;;;;1.00;1.00;;;;;9.39;100.00;98766.28;5042685;28;45402;-88
2022/11/04 03:29:26;;;;;;;;;1.50;0.50;;;;;9.43;100.00;98748.59;5044210;28;45462;-89
2022/11/04 03:32:07;;;;;;;;;3.50;2.00;;;;;9.47;100.00;98747.56;5031626;28;45409;-89
2022/11/04 03:34:33;;;;;;;;;2.00;1.50;;;;;9.49;100.00;98747.50;5044136;28;45799;-89
2022/11/04 03:36:59;;;;;;;;;2.00;2.00;;;;;9.50;100.00;98738.69;5042288;28;45573;-89
2022/11/04 03:39:25;;;;;;;;;1.25;1.00;;;;;9.50;100.00;98734.28;5030175;28;45446;-90
2022/11/04 03:41:55;;;;;;;;;1.00;1.00;;;;;9.52;100.00;98740.34;5037962;28;45583;-89
2022/11/04 03:44:22;;;;;;;;;0.25;0.25;;;;;9.54;100.00;98737.66;5039568;28;45637;-89
2022/11/04 03:46:47;;;;;;;;;1.00;1.00;;;;;9.54;100.00;98737.66;5038696;28;45369;-90
2022/11/04 03:49:14;;;;;;;;;2.50;2.00;;;;;9.55;100.00;98721.75;5041341;28;45353;-89
2022/11/04 03:51:39;;;;;;;;;5.00;1.75;;;;;9.58;100.00;98718.16;5038176;28;45334;-89
2022/11/04 03:54:05;;;;;;;;;4.25;2.00;;;;;9.59;100.00;98711.97;5037618;28;46234;-89
2022/11/04 03:57:02;;;;;;;;;4.40;2.40;;;;;9.60;100.00;98716.31;5049650;28;45466;-89
2022/11/04 03:59:46;;;;;;;;;3.25;2.00;;;;;9.58;100.00;98711.09;5041472;28;45391;-88
2022/11/04 04:02:19;;;;;;;;;2.25;2.25;;;;;9.58;100.00;98715.50;5032237;28;45357;-89
2022/11/04 04:04:58;;;;;;;;;2.00;2.00;;;;;9.55;100.00;98705.97;5035483;28;46281;-88
2022/11/04 04:07:48;;;;;;;;;2.00;1.25;;;;;9.54;100.00;98706.91;5025354;28;45447;-88
2022/11/04 04:10:38;;;;;;;;;1.00;1.00;;;;;9.50;100.00;98712.38;5025861;28;45491;-89
2022/11/04 04:13:20;;;;;;;;;1.00;1.00;;;;;9.47;100.00;98723.03;5029947;28;45390;-89
2022/11/04 04:15:56;;;;;;;;;2.75;1.00;;;;;9.44;100.00;98709.06;5022522;28;45450;-89
2022/11/04 04:18:48;;;;;;;;;1.75;1.75;;;;;9.41;100.00;98703.94;5034754;28;45236;-88
2022/11/04 04:21:20;;;;;;;;;2.75;2.00;;;;;9.40;100.00;98704.84;5027482;28;45412;-89
2022/11/04 04:29:24;;;;;;;;;2.00;1.00;;;;;9.34;100.00;98715.66;5051741;28;45481;-89
2022/11/04 04:31:56;;;;;;;;;3.00;1.25;;;;;9.31;100.00;98718.41;5033233;28;45549;-89
2022/11/04 04:34:30;;;;;;;;;3.00;3.00;;;;;9.28;100.00;98709.78;5046379;28;45364;-89
2022/11/04 04:36:59;;;;;;;;;2.25;1.00;;;;;9.27;100.00;98723.84;5027421;28;45412;-89
2022/11/04 04:45:04;;;;;;;;;3.50;3.50;;;;;9.21;100.00;98717.09;5032443;28;45374;-89
2022/11/04 04:47:50;;;;;;;;;3.00;3.00;;;;;9.18;100.00;98709.31;5030798;28;46657;-89
2022/11/04 04:50:18;;;;;;;;;3.00;2.00;;;;;9.16;100.00;98716.41;5035884;28;45376;-90
2022/11/04 04:52:47;;;;;;;;;3.00;3.00;;;;;9.14;100.00;98718.22;5026632;28;45480;-90
2022/11/04 04:55:14;;;;;;;;;2.00;2.00;;;;;9.13;100.00;98710.41;5023892;28;45524;-90
2022/11/04 04:57:39;;;;;;;;;3.25;3.00;;;;;9.08;100.00;98706.19;5034520;28;46607;-89
2022/11/04 05:00:08;;;;;;;;;2.50;2.50;;;;;9.06;100.00;98713.28;5038290;28;45365;-88
2022/11/04 05:02:33;;;;;;;;;3.25;2.75;;;;;9.02;100.00;98701.19;5047056;28;45423;-88
2022/11/04 05:05:00;;;;;;;;;2.25;2.25;;;;;8.99;100.00;98695.19;5038070;28;45402;-89
2022/11/04 05:07:25;;;;;;;;;3.00;3.00;;;;;8.97;100.00;98690.00;5036365;28;46222;-88
2022/11/04 05:09:51;;;;;;;;;2.00;2.00;;;;;8.95;100.00;98686.56;5028567;28;45374;-88
2022/11/04 05:12:17;;;;;;;;;2.00;2.00;;;;;8.91;100.00;98678.84;5037376;28;45415;-89
2022/11/04 05:14:42;;;;;;;;;3.75;2.75;;;;;8.88;100.00;98673.75;5042196;28;45361;-89
2022/11/04 05:17:08;;;;;;;;;2.00;2.00;;;;;8.85;100.00;98677.34;5036555;28;45551;-88
2022/11/04 05:19:33;;;;;;;;;2.50;1.25;;;;;8.82;100.00;98674.84;5028008;28;45410;-87
2022/11/04 05:21:59;;;;;;;;;1.25;1.25;;;;;8.80;100.00;98683.69;5037844;28;45710;-88
2022/11/04 05:24:24;;;;;;;;;2.00;2.00;;;;;8.79;100.00;98684.63;5021791;28;45511;-89
2022/11/04 05:26:50;;;;;;;;;3.00;1.25;;;;;8.77;100.00;98679.41;5044331;28;45508;-89
2022/11/04 05:29:15;;;;;;;;;2.00;2.00;;;;;8.75;100.00;98674.22;5043508;28;45424;-88
2022/11/04 05:31:41;;;;;;;;;1.75;1.00;;;;;8.75;100.00;98665.47;5029629;28;45447;-89
2022/11/04 05:34:10;;;;;;;;;2.00;1.50;;;;;8.74;100.00;98663.78;5030742;28;45468;-88
2022/11/04 05:36:36;;;;;;;;;3.25;2.00;;;;;8.72;100.00;98673.47;5030483;28;45386;-88
2022/11/04 05:39:02;;;;;;;;;1.75;1.75;;;;;8.71;100.00;98666.53;5034257;28;45317;-87
2022/11/04 05:41:28;;;;;;;;;3.00;3.00;;;;;8.71;100.00;98670.00;5038456;28;45338;-88
2022/11/04 05:43:57;;;;;;;;;2.50;2.50;;;;;8.72;100.00;98673.47;5052171;28;45484;-88
2022/11/04 05:46:24;;;;;;;;;3.00;3.00;;;;;8.73;100.00;98669.94;5036973;28;46415;-88
2022/11/04 05:48:50;;;;;;;;;5.00;5.00;;;;;8.71;100.00;98667.38;5043539;28;45237;-88
2022/11/04 05:51:18;;;;;;;;;2.50;2.00;;;;;8.72;100.00;98670.84;5047815;28;45522;-88
2022/11/04 05:53:43;;;;;;;;;2.25;2.25;;;;;8.73;100.00;98670.78;5033800;28;45392;-88
2022/11/04 05:56:09;;;;;;;;;3.00;2.75;;;;;8.75;100.00;98674.22;5041932;28;45629;-87
2022/11/04 05:58:34;;;;;;;;;3.00;3.00;;;;;8.77;100.00;98671.53;5040532;28;45500;-88
2022/11/04 06:01:13;;;;;;;;;5.00;2.00;;;;;8.80;100.00;98660.06;5036255;28;45531;-88
2022/11/04 06:03:38;;;;;;;;;2.75;2.75;;;;;8.80;100.00;98655.66;5032004;28;45416;-88
2022/11/04 06:06:04;;;;;;;;;1.75;1.75;;;;;8.79;100.00;98639.94;5026238;28;46100;-88
2022/11/04 06:08:30;;;;;;;;;2.00;2.00;;;;;8.80;100.00;98642.50;5026428;28;45333;-88
2022/11/04 06:10:56;;;;;;;;;1.50;1.50;;;;;8.83;100.00;98652.03;5036650;28;45410;-88
2022/11/04 06:13:21;;;;;;;;;2.00;2.00;;;;;8.82;100.00;98645.94;5034711;28;45511;-88
2022/11/04 06:15:46;;;;;;;;;1.00;1.00;;;;;8.81;100.00;98653.88;5034511;28;45628;-88
2022/11/04 06:18:12;;;;;;;;;1.00;1.00;;;;;8.80;100.00;98654.78;5035992;28;45345;-89
2022/11/04 06:20:37;;;;;;;;;1.00;1.00;;;;;8.80;100.00;98658.28;5035290;28;45598;-89
2022/11/04 06:23:03;;;;;;;;;2.00;2.00;;;;;8.84;100.00;98651.13;5033231;28;45338;-88
2022/11/04 06:25:28;;;;;;;;;0.00;0.00;;;;;8.86;100.00;98649.31;5039070;28;46460;-88
2022/11/04 06:27:54;;;;;;;;;2.75;2.00;;;;;8.88;100.00;98639.59;5037615;28;45420;-88
2022/11/04 06:30:20;;;;;;;;;2.00;2.00;;;;;8.91;100.00;98634.19;5045011;28;45378;-89
2022/11/04 06:32:46;;;;;;;;;3.25;2.50;;;;;8.96;100.00;98626.97;5039616;28;45346;-88
2022/11/04 06:35:12;;;;;;;;;3.00;3.00;;;;;8.97;100.00;98611.13;5048975;28;45467;-89
2022/11/04 06:37:37;;;;;;;;;5.25;4.00;;;;;9.00;100.00;98611.00;5038264;28;45564;-89
2022/11/04 06:40:03;;;;;;;;;3.00;3.00;;;;;9.02;100.00;98613.56;5036549;28;45459;-88
2022/11/04 06:42:28;;;;;;;;;3.00;3.00;;;;;9.06;100.00;98613.34;5042685;28;45515;-89
2022/11/04 06:44:54;;;;;;;;;3.50;3.00;;;;;9.12;100.00;98614.88;5028283;28;45293;-88
2022/11/04 06:47:19;;;;;;;;;3.25;3.00;;;;;9.16;99.35;98624.34;5038661;28;45562;-88
2022/11/04 06:49:44;;;;;;;;;2.00;2.00;;;;;9.20;99.98;98620.69;5048230;28;45479;-89
2022/11/04 06:52:10;;;;;;;;;4.00;3.00;;;;;9.25;99.56;98621.31;5046544;28;45409;-88
2022/11/04 06:54:35;;;;;;;;;2.50;2.50;;;;;9.30;99.76;98616.72;5044322;28;45636;-88
2022/11/04 06:57:01;;;;;;;;;3.75;3.75;;;;;9.34;100.00;98620.94;5047869;28;45401;-88
2022/11/04 06:59:27;;;;;;;;;5.00;4.00;;;;;9.38;100.00;98619.88;5044155;28;45535;-87
2022/11/04 07:01:52;;;;;;;;;4.75;3.75;;;;;9.43;99.77;98614.41;5042041;28;45444;-87
2022/11/04 07:04:18;;;;;;;;;4.75;3.00;;;;;9.49;99.18;98619.41;5035784;28;45866;-86
2022/11/04 07:06:43;;;;;;;;;3.00;3.00;;;;;9.53;99.01;98615.75;5043363;28;45553;-89
2022/11/04 07:09:11;;;;;;;;;6.25;6.25;;;;;9.57;98.89;98609.41;5043527;28;45452;-85
2022/11/04 07:11:36;;;;;;;;;3.50;3.50;;;;;9.61;98.66;98610.97;5047027;28;45382;-88
2022/11/04 07:14:02;;;;;;;;;3.00;3.00;;;;;9.65;98.73;98609.94;5037603;28;46894;-88
2022/11/04 07:16:27;;;;;;;;;4.25;4.25;;;;;9.70;98.94;98607.09;5042843;28;45525;-89
2022/11/04 07:18:54;;;;;;;;;5.75;4.75;;;;;9.77;98.63;98609.38;5051776;28;45416;-87
2022/11/04 07:21:19;;;;;;;;;4.25;3.00;;;;;9.84;98.75;98604.69;5035842;28;45263;-86
2022/11/04 07:23:45;;;;;;;;;3.25;3.25;;;;;9.93;97.91;98598.13;5044074;28;45479;-88
2022/11/04 07:26:11;;;;;;;;;1.50;1.50;;;;;9.98;96.31;98598.78;5047357;28;45415;-89
2022/11/04 07:28:37;;;;;;;;;4.00;2.00;;;;;10.04;96.05;98595.88;5043112;28;45298;-90
2022/11/04 07:31:05;;;;;;;;;6.50;5.00;;;;;10.11;96.56;98598.16;5052302;28;45504;-91
2022/11/04 07:33:32;;;;;;;;;2.75;2.75;;;;;10.19;96.12;98592.56;5030943;28;45635;-92
2022/11/04 07:36:01;;;;;;;;;2.50;2.00;;;;;10.25;95.47;98579.09;5041258;28;46132;-90
2022/11/04 07:38:27;;;;;;;;;1.00;1.00;;;;;10.27;93.72;98571.13;5037807;28;45525;-90
2022/11/04 07:40:52;;;;;;;;;1.00;1.00;;;;;10.30;93.37;98568.34;5037949;28;45331;-89
2022/11/04 07:43:17;;;;;;;;;4.00;3.00;;;;;10.33;92.88;98576.09;5037192;28;45808;-89
2022/11/04 07:45:43;;;;;;;;;7.75;6.00;;;;;10.34;92.79;98562.84;5049568;28;45444;-88
2022/11/04 07:48:08;;;;;;;;;1.00;1.00;;;;;10.38;92.70;98569.69;5020919;28;45534;-90
2022/11/04 07:50:36;;;;;;;;;2.00;2.00;;;;;10.41;91.74;98571.31;5056283;28;45439;-89
2022/11/04 07:53:02;;;;;;;;;1.75;1.75;;;;;10.41;90.91;98574.78;5043357;28;45664;-90
2022/11/04 07:55:27;;;;;;;;;2.00;2.00;;;;;10.41;91.13;98569.53;5058247;28;45413;-90
2022/11/04 07:57:54;;;;;;;;;2.00;2.00;;;;;10.43;90.98;98569.44;5056361;28;45288;-91
2022/11/04 08:00:19;;;;;;;;;2.00;2.00;;;;;10.44;91.07;98566.75;5051775;28;45473;-91
2022/11/04 08:02:45;;;;;;;;;1.00;1.00;;;;;10.43;90.05;98559.75;5044147;28;45491;-91
2022/11/04 08:05:12;;;;;;;;;1.75;1.75;;;;;10.38;88.97;98551.25;5042255;28;45271;-89
2022/11/04 08:07:37;;;;;;;;;1.50;1.00;;;;;10.34;89.46;98549.69;5037641;28;45502;-89
2022/11/04 08:10:03;;;;;;;;;1.50;1.00;;;;;10.36;90.09;98539.06;5053179;28;45202;-90
2022/11/04 08:12:31;;;;;;;;;9.25;9.25;;;;;10.39;90.21;98541.56;5040719;28;48446;-90
2022/11/04 08:14:56;;;;;;;;;1.60;1.60;;;;;10.43;90.20;98549.22;5041621;28;45350;-90
2022/11/04 08:17:22;;;;;;;;;3.00;3.00;;;;;10.46;90.74;98550.88;5037045;28;45440;-89
2022/11/04 08:19:47;;;;;;;;;5.00;4.25;;;;;10.48;90.54;98536.69;5043348;28;45593;-88
2022/11/04 08:22:13;;;;;;;;;6.50;6.00;;;;;10.52;91.14;98526.84;5031607;28;45408;-88
2022/11/04 08:24:39;;;;;;;;;5.25;5.25;;;;;10.57;91.02;98522.19;5034661;28;45409;-88
2022/11/04 08:27:06;;;;;;;;;6.25;4.50;;;;;10.60;91.51;98534.38;5043881;28;45418;-89
2022/11/04 08:29:32;;;;;;;;;8.25;6.50;;;;;10.61;91.10;98534.28;5034840;28;45443;-88
2022/11/04 08:31:58;;;;;;;;;4.75;4.75;;;;;10.60;91.01;98526.47;5017875;28;45682;-88
2022/11/04 08:34:23;;;;;;;;;7.00;7.00;;;;;10.64;90.62;98525.38;5030578;28;45361;-88
2022/11/04 08:36:51;;;;;;;;;5.50;5.00;;;;;10.68;90.81;98521.69;5037383;28;45440;-88
2022/11/04 08:39:18;;;;;;;;;5.25;4.00;;;;;10.73;89.80;98514.38;5034434;28;45352;-89
2022/11/04 08:41:44;;;;;;;;;5.75;5.25;;;;;10.75;90.30;98516.00;5032398;28;47132;-88
2022/11/04 08:44:12;;;;;;;;;6.00;6.00;;;;;10.80;91.14;98508.72;5037071;28;45160;-84
2022/11/04 08:46:40;;;;;;;;;5.75;5.75;;;;;10.92;90.80;98501.09;5024968;28;45373;-70
2022/11/04 08:49:07;;;;;;;;;5.25;5.25;;;;;11.01;90.11;98501.50;5027486;28;45441;-70
2022/11/04 08:51:34;;;;;;;;;8.25;8.25;;;;;11.09;90.85;98506.34;5031224;28;46523;-69
2022/11/04 08:54:00;;;;;;;;;22.50;18.25;;;;;11.11;91.34;98497.44;5034000;28;45664;-69
2022/11/04 08:56:28;;;;;;;;;25.00;18.50;;;;;11.11;91.66;98480.75;5033971;28;45686;-69
2022/11/04 08:58:55;;;;;;;;;6.50;6.50;;;;;11.12;91.78;98475.41;5034291;28;45441;-70
2022/11/04 09:01:21;;;;;;;;;7.00;7.00;;;;;11.14;92.29;98472.69;5034995;28;46164;-70
2022/11/04 09:03:47;;;;;;;;;13.00;9.75;;;;;11.22;92.76;98469.66;5034545;28;45464;-70
2022/11/04 09:06:18;;;;;;;;;9.00;8.00;;;;;11.27;92.46;98465.81;5030422;28;45515;-70
2022/11/04 09:08:43;;;;;;;;;13.75;10.25;;;;;11.30;92.74;98463.03;5033813;28;45545;-69
2022/11/04 09:11:11;;;;;;;;;11.00;10.50;;;;;11.34;92.67;98464.56;5027817;28;45496;-70
2022/11/04 09:13:37;;;;;;;;;8.25;7.00;;;;;11.36;91.93;98457.44;5029149;28;45516;-70
2022/11/04 09:18:29;;;;;;;;;8.00;7.25;;;;;11.41;91.62;98465.94;5013589;28;73049;-70
2022/11/04 09:20:54;;;;;;;;;6.00;6.00;;;;;11.44;91.08;98457.84;5025474;28;46420;-71
2022/11/04 09:23:20;;;;;;;;;8.25;7.50;;;;;11.37;89.51;98445.94;5031506;28;45335;-70
2022/11/04 09:25:45;;;;;;;;;6.25;6.25;;;;;11.26;88.96;98443.00;5045125;28;45919;-71
2022/11/04 09:28:11;;;;;;;;;5.50;5.50;;;;;11.17;87.94;98447.00;5033821;28;45404;-72
2022/11/04 09:30:37;;;;;;;;;7.00;5.75;;;;;11.10;88.12;98442.13;5033478;28;46590;-71
2022/11/04 09:33:03;;;;;;;;;6.00;6.00;;;;;11.09;88.69;98445.69;5033150;28;45331;-71
2022/11/04 09:35:28;;;;;;;;;9.00;7.25;;;;;11.14;89.55;98433.97;5032556;28;45499;-70
2022/11/04 09:37:54;;;;;;;;;8.25;6.25;;;;;11.21;88.77;98434.50;5041697;28;45599;-71
2022/11/04 09:40:23;;;;;;;;;4.75;4.00;;;;;11.27;88.36;98426.25;5033032;28;46434;-71
2022/11/04 09:43:33;;;;;;;;;3.40;3.40;;;;;11.35;88.58;98421.41;5031323;28;45872;-73
2022/11/04 09:46:01;;;;;;;;;2.25;2.25;;;;;11.43;86.91;98423.63;5027936;28;45523;-72
2022/11/04 09:48:26;;;;;;;;;9.25;8.50;;;;;11.48;87.21;98419.81;5043825;28;45427;-72
2022/11/04 09:50:58;;;;;;;;;5.00;4.75;;;;;11.48;86.50;98425.09;5030915;28;47953;-71
2022/11/04 09:53:47;;;;;;;;;6.00;4.20;;;;;11.45;87.01;98417.31;5037322;28;45595;-72
2022/11/04 09:56:15;;;;;;;;;2.75;2.75;;;;;11.41;86.70;98420.22;5028210;28;45483;-72
2022/11/04 09:58:41;;;;;;;;;4.75;4.00;;;;;11.37;87.11;98416.06;5031420;28;45396;-71
2022/11/04 10:01:40;;;;;;;;;2.00;2.00;;;;;11.35;86.50;98421.41;5032862;28;45437;-71
2022/11/04 10:04:48;;;;;;;;;6.40;2.00;;;;;11.35;83.33;98428.47;5031222;28;45440;-71
2022/11/04 10:07:30;;;;;;;;;4.75;4.75;;;;;11.29;85.12;98429.66;5028404;28;45606;-71
2022/11/04 10:10:26;;;;;;;;;5.25;4.50;;;;;11.26;85.88;98434.25;5032744;28;45416;-73
2022/11/04 10:13:23;;;;;;;;;6.75;3.75;;;;;11.21;87.10;98428.38;5021897;28;47855;-72
2022/11/04 10:16:09;;;;;;;;;6.75;5.50;;;;;11.23;87.64;98431.78;5034723;28;45499;-71
2022/11/04 10:18:52;;;;;;;;;3.25;3.00;;;;;11.26;87.35;98442.16;5030271;28;45721;-72
2022/11/04 10:21:33;;;;;;;;;0.75;0.75;;;;;11.29;86.29;98440.22;5032470;28;45834;-73
2022/11/04 10:24:19;;;;;;;;;6.75;5.00;;;;;11.32;87.78;98436.56;5032650;28;45453;-72
2022/11/04 10:26:48;;;;;;;;;7.00;5.50;;;;;11.34;87.86;98430.28;5039510;28;45586;-73
2022/11/04 10:29:28;;;;;;;;;4.50;4.50;;;;;11.38;87.57;98421.25;5033271;28;45584;-72
2022/11/04 10:31:57;;;;;;;;;10.00;8.50;;;;;11.39;88.17;98425.59;5027349;28;45630;-71
2022/11/04 10:34:35;;;;;;;;;6.50;4.25;;;;;11.43;88.31;98432.41;5031268;28;45449;-71
2022/11/04 10:37:02;;;;;;;;;2.00;2.00;;;;;11.44;86.72;98442.00;5017465;28;45532;-71
2022/11/04 10:39:36;;;;;;;;;3.75;3.75;;;;;11.34;86.63;98440.81;5031016;28;45504;-71
2022/11/04 10:42:04;;;;;;;;;6.00;4.00;;;;;11.23;86.63;98432.59;5024533;28;45486;-71
2022/11/04 10:44:33;;;;;;;;;6.00;3.50;;;;;11.09;87.68;98435.13;5032163;28;46735;-70
2022/11/04 10:47:26;;;;;;;;;8.00;6.25;;;;;10.91;89.27;98438.75;5029038;28;45364;-71
2022/11/04 10:50:16;;;;;;;;;12.00;9.00;;;;;10.68;90.41;98435.53;5031605;28;45503;-70
2022/11/04 10:52:41;;;;;;;;;7.00;6.50;;;;;10.54;91.19;98422.22;5027365;28;45565;-69
2022/11/04 10:55:30;;;;;;;;;8.50;8.50;;;;;10.46;91.57;98427.00;5030700;28;46060;-69
2022/11/04 10:57:58;;;;;;;;;4.00;4.00;;;;;10.35;91.62;98418.81;5011184;28;45474;-70
2022/11/04 11:00:38;;;;;;;;;3.25;3.25;;;;;10.22;91.69;98423.81;5042909;28;45482;-69
2022/11/04 11:03:23;;;;;;;;;3.50;3.25;;;;;10.08;91.88;98413.94;5042030;28;45434;-70
2022/11/04 11:05:50;;;;;;;;;4.00;3.00;;;;;10.00;92.38;98410.84;5031512;28;45365;-68
2022/11/04 11:08:31;;;;;;;;;2.00;2.00;;;;;9.90;91.09;98401.66;5028834;28;45491;-68
2022/11/04 11:10:57;;;;;;;;;3.50;2.00;;;;;9.82;92.49;98403.84;5021561;28;45310;-68
2022/11/04 11:13:26;;;;;;;;;1.00;1.00;;;;;9.75;92.76;98408.53;5031560;28;45604;-68
2022/11/04 11:16:24;;;;;;;;;2.00;1.75;;;;;9.71;91.79;98435.09;5034110;28;46443;-67
2022/11/04 11:19:11;;;;;;;;;0.80;0.80;;;;;9.67;92.28;98444.91;5034015;28;45445;-67
2022/11/04 11:21:47;;;;;;;;;2.50;1.00;;;;;9.58;94.32;98440.06;5031978;28;45428;-67
2022/11/04 11:24:23;;;;;;;;;4.00;2.00;;;;;9.48;95.61;98451.94;5033370;28;45333;-67
2022/11/04 11:26:52;;;;;;;;;2.00;1.00;;;;;9.39;97.38;98468.16;5031556;28;48263;-66
2022/11/04 11:29:22;;;;;;;;;2.00;2.00;;;;;9.30;98.66;98466.81;5035692;28;45381;-66
2022/11/04 11:31:50;;;;;;;;;5.50;4.00;;;;;9.23;100.00;98473.25;5031051;28;45443;-67
2022/11/04 11:34:37;;;;;;;;;1.00;1.00;;;;;9.18;99.52;98466.50;5048789;28;45413;-67
2022/11/04 11:37:04;;;;;;;;;3.00;3.00;;;;;9.16;100.00;98466.56;5025207;28;46068;-67
2022/11/04 11:39:33;;;;;;;;;1.00;1.00;;;;;9.18;98.97;98482.28;5034870;28;45508;-66
2022/11/04 11:42:24;;;;;;;;;1.25;1.00;;;;;9.21;98.76;98476.91;5030719;28;45492;-67
2022/11/04 11:44:55;;;;;;;;;4.75;4.25;;;;;9.29;100.00;98482.66;5030999;28;46317;-67
2022/11/04 11:47:20;;;;;;;;;4.00;4.00;;;;;9.33;99.68;98481.59;5032113;28;45977;-66
2022/11/04 11:50:02;;;;;;;;;9.00;7.00;;;;;9.34;100.00;98480.69;5032265;28;45493;-66
2022/11/04 11:52:38;;;;;;;;;4.75;4.50;;;;;9.39;100.00;98491.81;5032984;28;45504;-66
2022/11/04 11:55:15;;;;;;;;;3.50;2.50;;;;;9.40;100.00;98485.63;5034406;28;45519;-67
2022/11/04 11:58:18;;;;;;;;;4.00;3.25;;;;;9.41;100.00;98489.97;5027134;28;46416;-67
2022/11/04 12:01:14;;;;;;;;;2.50;2.00;;;;;9.42;100.00;98483.78;5023378;28;45333;-65
2022/11/04 12:03:44;;;;;;;;;5.00;4.00;;;;;9.45;100.00;98489.78;5038352;28;45616;-65
2022/11/04 12:06:30;;;;;;;;;2.75;2.00;;;;;9.50;100.00;98481.69;5027781;28;45559;-66
2022/11/04 12:09:29;;;;;;;;;2.00;2.00;;;;;9.58;98.78;98482.16;5026083;28;46440;-66
2022/11/04 12:11:54;;;;;;;;;3.75;3.00;;;;;9.68;99.53;98490.50;5028481;28;45464;-66
2022/11/04 12:14:29;;;;;;;;;3.00;3.00;;;;;9.73;99.14;98493.75;5040037;28;45698;-66
2022/11/04 12:17:18;;;;;;;;;1.75;0.25;;;;;9.72;98.32;98499.94;5030684;28;45643;-66
2022/11/04 12:20:21;;;;;;;;;3.00;2.00;;;;;9.66;96.89;98502.88;5031986;28;46581;-66